Time;durP1;ratioP1;P1;durP2;ratioP2;P2;SDS_P1;SDS_P2;PMS_P1;PMS_P2;Temp;Humidity;BMP_temperature;BMP_pressure;BME280_temperature;BME280_humidity;BME280_pressure;Samples;Min_cycle;Max_cycle;Signal;HPM_P1;HPM_P2
2022/03/21 00:02:01;;;;;;;29.63;14.10;;;;;;;6.95;87.30;101797.41;5054468;28;20099;-71
2022/03/21 00:04:45;;;;;;;25.85;15.23;;;;;;;6.78;89.63;101797.50;5053461;28;20102;-71
2022/03/21 00:07:28;;;;;;;26.33;14.32;;;;;;;6.57;92.19;101804.78;5054115;28;20420;-71
2022/03/21 00:10:12;;;;;;;29.13;13.73;;;;;;;6.62;100.00;101799.25;5053296;28;20523;-71
2022/03/21 00:12:56;;;;;;;24.55;14.07;;;;;;;6.58;100.00;101798.56;5054353;28;20408;-71
2022/03/21 00:15:40;;;;;;;21.27;12.95;;;;;;;6.60;99.17;101793.19;5038913;28;20411;-71
2022/03/21 00:18:25;;;;;;;21.77;13.32;;;;;;;6.61;100.00;101798.41;5052942;28;20519;-71
2022/03/21 00:21:09;;;;;;;22.30;13.10;;;;;;;6.57;100.00;101802.16;5052290;28;20047;-71
2022/03/21 00:23:53;;;;;;;21.88;14.13;;;;;;;6.52;100.00;101801.56;5053405;28;20511;-71
2022/03/21 00:26:37;;;;;;;25.63;15.25;;;;;;;6.52;100.00;101801.56;5053758;28;20175;-71
2022/03/21 00:29:22;;;;;;;22.42;13.73;;;;;;;6.53;100.00;101797.09;5052701;28;20095;-71
2022/03/21 00:32:06;;;;;;;24.63;12.48;;;;;;;6.46;100.00;101803.69;5038975;28;20051;-72
2022/03/21 00:34:50;;;;;;;22.10;13.18;;;;;;;6.48;100.00;101805.28;5053586;28;20411;-71
2022/03/21 00:37:35;;;;;;;21.15;13.02;;;;;;;6.37;100.00;101805.00;5052628;28;20055;-71
2022/03/21 00:40:19;;;;;;;25.42;13.82;;;;;;;6.11;100.00;101799.34;5052396;28;20071;-71
2022/03/21 00:43:03;;;;;;;27.77;13.82;;;;;;;5.98;100.00;101793.84;5053532;28;20052;-71
2022/03/21 00:45:48;;;;;;;27.35;13.30;;;;;;;5.92;100.00;101793.28;5052868;28;20048;-71
2022/03/21 00:48:32;;;;;;;22.25;12.73;;;;;;;5.80;100.00;101800.06;5052618;28;20087;-71
2022/03/21 00:51:16;;;;;;;19.45;12.35;;;;;;;5.82;100.00;101802.63;5052682;28;20103;-71
2022/03/21 00:54:00;;;;;;;21.10;12.75;;;;;;;5.73;100.00;101806.56;5052583;28;20051;-71
2022/03/21 00:56:43;;;;;;;21.83;12.55;;;;;;;5.64;100.00;101801.72;5053474;28;20658;-71
2022/03/21 00:59:27;;;;;;;;;;;;;;;5.61;100.00;101801.03;5053553;28;20052;-71
2022/03/21 01:02:12;;;;;;;27.03;13.57;;;;;;;5.49;100.00;101801.63;5038431;28;19919;-71
2022/03/21 01:04:56;;;;;;;21.77;13.15;;;;;;;5.27;100.00;101808.91;5052487;28;20095;-71
2022/03/21 01:07:41;;;;;;;20.70;12.68;;;;;;;5.14;100.00;101811.25;5052515;28;20060;-71
2022/03/21 01:10:26;;;;;;;23.10;11.68;;;;;;;5.14;100.00;101808.63;5052087;28;20056;-71
2022/03/21 01:13:10;;;;;;;22.08;12.43;;;;;;;5.16;100.00;101805.91;5052394;28;20047;-71
2022/03/21 01:15:54;;;;;;;22.98;12.80;;;;;;;5.12;100.00;101807.84;5038352;28;20439;-71
2022/03/21 01:18:38;;;;;;;22.27;12.60;;;;;;;5.16;100.00;101813.84;5052464;28;20048;-71
2022/03/21 01:21:22;;;;;;;20.90;11.98;;;;;;;5.14;100.00;101821.84;5038005;28;20463;-71
2022/03/21 01:24:06;;;;;;;22.23;12.43;;;;;;;5.11;100.00;101819.34;5053067;28;20051;-70
2022/03/21 01:26:50;;;;;;;19.17;11.27;;;;;;;5.09;100.00;101834.44;5052011;28;20047;-70
2022/03/21 01:29:34;;;;;;;21.17;12.98;;;;;;;5.10;100.00;101828.22;5051976;28;20048;-70
2022/03/21 01:32:19;;;;;;;25.20;12.93;;;;;;;5.09;100.00;101831.78;5055288;28;20146;-71
2022/03/21 01:35:04;;;;;;;20.90;12.65;;;;;;;5.09;100.00;101836.19;5057010;28;20420;-71
2022/03/21 01:37:48;;;;;;;27.00;13.90;;;;;;;4.86;100.00;101838.22;5055980;28;20094;-70
2022/03/21 01:40:32;;;;;;;20.13;11.88;;;;;;;4.76;100.00;101839.56;5057140;28;20052;-70
2022/03/21 01:43:16;;;;;;;18.42;11.95;;;;;;;4.73;100.00;101839.69;5056152;28;20404;-71
2022/03/21 01:45:59;;;;;;;21.73;13.27;;;;;;;4.64;100.00;101829.53;5055898;28;20052;-71
2022/03/21 01:48:43;;;;;;;20.33;12.80;;;;;;;4.40;100.00;101838.56;5041851;28;20051;-71
2022/03/21 01:51:28;;;;;;;21.48;12.57;;;;;;;4.40;100.00;101836.78;5055988;28;20072;-71
2022/03/21 01:57:15;;;;;;;23.17;13.73;;;;;;;4.45;100.00;101837.44;5055869;28;20132;-71
2022/03/21 01:59:59;;;;;;;;;;;;;;;4.49;100.00;101838.16;5055936;28;20099;-71
2022/03/21 02:02:44;;;;;;;24.45;13.13;;;;;;;4.49;100.00;101846.91;5055843;28;20422;-71
2022/03/21 02:05:28;;;;;;;21.73;13.18;;;;;;;4.49;100.00;101843.44;5041604;28;20521;-70
2022/03/21 02:08:11;;;;;;;20.30;12.82;;;;;;;4.52;100.00;101845.94;5056454;28;20044;-71
2022/03/21 02:10:55;;;;;;;25.45;11.95;;;;;;;4.37;100.00;101841.34;5055653;28;20174;-70
2022/03/21 02:13:39;;;;;;;22.85;13.15;;;;;;;4.36;100.00;101842.28;5055553;28;20102;-70
2022/03/21 02:16:25;;;;;;;23.67;12.98;;;;;;;4.38;100.00;101846.53;5055544;28;20045;-71
2022/03/21 02:19:15;;;;;;;20.23;11.90;;;;;;;4.38;100.00;101849.19;5055321;28;20052;-71
2022/03/21 02:22:14;;;;;;;23.10;11.80;;;;;;;4.23;100.00;101847.22;5055162;28;20047;-71
2022/03/21 02:25:10;;;;;;;23.23;14.25;;;;;;;4.04;100.00;101842.81;5056618;28;20129;-71
2022/03/21 02:27:58;;;;;;;26.63;14.45;;;;;;;3.91;100.00;101839.81;5055319;28;20052;-71
2022/03/21 02:30:45;;;;;;;19.10;12.25;;;;;;;3.93;100.00;101837.09;5040787;28;20048;-71
2022/03/21 02:33:29;;;;;;;23.42;12.90;;;;;;;3.94;100.00;101844.13;5054953;28;20099;-71
2022/03/21 02:36:15;;;;;;;25.98;13.93;;;;;;;3.98;100.00;101837.78;5055157;28;20114;-71
2022/03/21 02:38:59;;;;;;;22.45;13.70;;;;;;;4.02;100.00;101847.28;5040582;28;20114;-71
2022/03/21 02:41:43;;;;;;;23.98;14.02;;;;;;;4.06;100.00;101835.69;5055032;28;20048;-71
2022/03/21 02:44:38;;;;;;;23.77;13.90;;;;;;;3.91;100.00;101837.19;5040496;28;20098;-71
2022/03/21 02:47:22;;;;;;;22.85;12.65;;;;;;;3.93;100.00;101848.53;5055675;28;20515;-71
2022/03/21 02:50:11;;;;;;;24.48;13.88;;;;;;;4.00;100.00;101838.56;5055545;28;20120;-70
2022/03/21 02:52:56;;;;;;;23.63;13.43;;;;;;;4.03;100.00;101838.44;5040477;28;20056;-71
2022/03/21 02:55:40;;;;;;;25.85;13.32;;;;;;;4.04;100.00;101840.19;5055491;28;20052;-71
2022/03/21 02:58:24;;;;;;;25.70;14.48;;;;;;;3.97;100.00;101836.06;5054203;28;20052;-71
2022/03/21 03:01:13;;;;;;;24.75;13.63;;;;;;;3.97;100.00;101842.19;5054797;28;20071;-71
2022/03/21 03:03:57;;;;;;;21.95;13.15;;;;;;;4.01;100.00;101840.28;5040279;28;20090;-71
2022/03/21 03:06:41;;;;;;;23.35;13.30;;;;;;;4.03;100.00;101849.84;5054609;28;20052;-71
2022/03/21 03:09:28;;;;;;;20.58;12.95;;;;;;;4.10;100.00;101853.97;5056197;28;20099;-71
2022/03/21 03:12:11;;;;;;;23.50;14.02;;;;;;;4.15;100.00;101853.78;5054495;28;20048;-72
2022/03/21 03:14:55;;;;;;;22.48;13.50;;;;;;;4.22;100.00;101860.47;5055434;28;20052;-73
2022/03/21 03:17:39;;;;;;;25.13;13.57;;;;;;;4.30;100.00;101861.88;5054601;28;20044;-72
2022/03/21 03:20:23;;;;;;;26.33;14.05;;;;;;;4.27;100.00;101859.34;5039956;28;20080;-72
2022/03/21 03:23:07;;;;;;;25.27;13.73;;;;;;;4.23;100.00;101856.91;5054012;28;20415;-72
2022/03/21 03:25:57;;;;;;;26.35;14.52;;;;;;;4.19;100.00;101865.91;5053971;28;20099;-72
2022/03/21 03:28:41;;;;;;;22.38;13.70;;;;;;;4.01;100.00;101861.38;5055078;28;20103;-72
2022/03/21 03:31:25;;;;;;;26.48;15.07;;;;;;;3.84;100.00;101864.75;5055121;28;20614;-72
2022/03/21 03:34:09;;;;;;;26.80;15.00;;;;;;;3.97;100.00;101865.09;5055019;28;20503;-72
2022/03/21 03:36:53;;;;;;;23.55;14.95;;;;;;;3.91;100.00;101858.28;5054044;28;20043;-72
2022/03/21 03:39:37;;;;;;;23.85;14.60;;;;;;;4.05;100.00;101863.00;5053544;28;20103;-71
2022/03/21 03:42:21;;;;;;;27.65;15.65;;;;;;;4.10;100.00;101861.00;5039848;28;20134;-72
2022/03/21 03:45:05;;;;;;;27.38;15.90;;;;;;;4.21;100.00;101872.84;5054717;28;20416;-71
2022/03/21 03:47:49;;;;;;;24.35;15.15;;;;;;;4.34;100.00;101866.09;5039735;28;20504;-72
2022/03/21 03:50:33;;;;;;;26.48;15.65;;;;;;;4.48;100.00;101881.34;5053430;28;20102;-72
2022/03/21 03:53:18;;;;;;;23.13;13.95;;;;;;;4.59;100.00;101874.63;5054879;28;20091;-72
2022/03/21 03:56:02;;;;;;;25.52;15.13;;;;;;;4.73;100.00;101880.19;5053660;28;20047;-72
2022/03/21 03:58:46;;;;;;;26.60;14.75;;;;;;;4.82;100.00;101873.63;5053357;28;20073;-72
2022/03/21 04:01:30;;;;;;;;;;;;;;;4.93;100.00;101878.34;5053717;28;20549;-72
2022/03/21 04:04:14;;;;;;;27.55;14.50;;;;;;;5.04;100.00;101881.34;5053575;28;20275;-72
2022/03/21 04:06:58;;;;;;;21.88;14.00;;;;;;;5.09;100.00;101883.78;5054196;28;20056;-72
2022/03/21 04:09:42;;;;;;;27.15;14.93;;;;;;;5.16;100.00;101890.50;5053042;28;20421;-72
2022/03/21 04:12:26;;;;;;;24.38;14.55;;;;;;;5.24;100.00;101891.84;5039510;28;20107;-72
2022/03/21 04:15:10;;;;;;;26.40;15.57;;;;;;;5.32;100.00;101900.28;5054562;28;20470;-71
2022/03/21 04:18:01;;;;;;;22.67;13.77;;;;;;;5.26;100.00;101892.66;5053950;28;20048;-72
2022/03/21 04:20:46;;;;;;;25.92;13.90;;;;;;;5.30;100.00;101886.28;5038841;28;20044;-72
2022/03/21 04:23:30;;;;;;;27.48;14.98;;;;;;;5.05;100.00;101898.91;5053138;28;20105;-71
2022/03/21 04:26:14;;;;;;;24.02;13.73;;;;;;;5.07;100.00;101896.22;5053822;28;20122;-72
2022/03/21 04:28:59;;;;;;;19.20;13.02;;;;;;;5.19;100.00;101890.34;5038901;28;20040;-72
2022/03/21 04:31:43;;;;;;;23.50;14.13;;;;;;;5.16;100.00;101901.09;5053844;28;20084;-72
2022/03/21 04:34:27;;;;;;;23.63;14.18;;;;;;;5.13;100.00;101896.78;5052677;28;20055;-72
2022/03/21 04:37:11;;;;;;;25.98;15.20;;;;;;;4.95;100.00;101902.91;5053629;28;20515;-72
2022/03/21 04:39:56;;;;;;;25.95;14.60;;;;;;;4.94;100.00;101900.34;5053439;28;20569;-72
2022/03/21 04:42:40;;;;;;;23.27;13.65;;;;;;;4.82;100.00;101911.47;5052795;28;20077;-72
2022/03/21 04:45:24;;;;;;;25.42;14.55;;;;;;;4.77;100.00;101917.91;5052828;28;20102;-72
2022/03/21 04:48:09;;;;;;;21.30;13.35;;;;;;;4.87;100.00;101924.50;5053034;28;20152;-72
2022/03/21 04:50:52;;;;;;;26.83;14.70;;;;;;;4.77;100.00;101916.09;5053309;28;20420;-72
2022/03/21 04:53:36;;;;;;;28.45;15.77;;;;;;;4.63;100.00;101918.50;5038632;28;20495;-72
2022/03/21 04:56:20;;;;;;;25.25;15.05;;;;;;;4.57;100.00;101916.13;5053633;28;20051;-72
2022/03/21 04:59:04;;;;;;;21.42;14.35;;;;;;;4.60;100.00;101915.13;5053456;28;20685;-72
2022/03/21 05:01:48;;;;;;;23.48;14.55;;;;;;;4.73;100.00;101916.31;5053256;28;20090;-72
2022/03/21 05:04:34;;;;;;;26.35;14.43;;;;;;;4.80;100.00;101923.03;5053544;28;20507;-72
2022/03/21 05:07:19;;;;;;;24.52;13.93;;;;;;;4.67;100.00;101925.34;5052098;28;20048;-72
2022/03/21 05:10:03;;;;;;;26.10;14.82;;;;;;;4.66;100.00;101928.09;5052466;28;20512;-72
2022/03/21 05:12:48;;;;;;;25.75;14.20;;;;;;;4.72;100.00;101933.97;5053396;28;20131;-72
2022/03/21 05:15:32;;;;;;;24.08;13.55;;;;;;;4.84;100.00;101924.59;5052107;28;20048;-72
2022/03/21 05:18:16;;;;;;;26.65;14.75;;;;;;;4.81;100.00;101933.56;5052983;28;20052;-72
2022/03/21 05:21:04;;;;;;;24.27;14.07;;;;;;;4.81;100.00;101937.97;5052604;28;20400;-72
2022/03/21 05:35:59;;;;;;;28.23;14.88;;;;;;;5.25;100.00;101946.44;5053138;28;20095;-72
2022/03/21 05:38:44;;;;;;;25.00;15.10;;;;;;;4.92;100.00;101943.63;5051815;28;20052;-72
2022/03/21 05:41:28;;;;;;;25.27;15.27;;;;;;;4.97;100.00;101949.59;5052157;28;20052;-71
2022/03/21 05:44:12;;;;;;;25.40;14.45;;;;;;;5.11;100.00;101948.88;5053390;28;20048;-72
2022/03/21 05:46:56;;;;;;;26.42;15.23;;;;;;;5.27;100.00;101957.84;5052046;28;20091;-72
2022/03/21 05:49:40;;;;;;;23.70;14.68;;;;;;;5.43;100.00;101952.72;5052014;28;20048;-71
2022/03/21 05:52:24;;;;;;;21.20;13.73;;;;;;;5.58;100.00;101962.56;5053089;28;20090;-72
2022/03/21 05:55:08;;;;;;;24.33;14.57;;;;;;;5.73;100.00;101957.41;5037956;28;20056;-72
2022/03/21 05:57:51;;;;;;;23.08;13.63;;;;;;;5.79;100.00;101962.44;5052575;28;20114;-73
2022/03/21 06:00:36;;;;;;;24.08;13.50;;;;;;;5.88;100.00;101959.34;5052591;28;20051;-72
2022/03/21 06:03:21;;;;;;;25.17;15.18;;;;;;;6.04;100.00;101962.13;5052658;28;20068;-72
2022/03/21 06:06:05;;;;;;;25.25;13.70;;;;;;;6.14;100.00;101969.53;5052199;28;20514;-72
2022/03/21 06:08:49;;;;;;;26.45;13.80;;;;;;;6.22;100.00;101969.13;5051767;28;20044;-72
2022/03/21 06:11:36;;;;;;;24.80;12.65;;;;;;;6.24;100.00;101981.38;5052842;28;20090;-72
2022/03/21 06:14:20;;;;;;;21.02;13.32;;;;;;;6.32;100.00;101978.34;5052559;28;20416;-72
2022/03/21 06:17:04;;;;;;;21.85;14.10;;;;;;;6.31;100.00;101977.50;5051888;28;20087;-72
2022/03/21 06:19:48;;;;;;;21.60;13.68;;;;;;;6.32;100.00;101981.88;5041129;28;20084;-72
2022/03/21 06:22:32;;;;;;;22.80;13.98;;;;;;;6.37;100.00;101989.59;5055399;28;20052;-72
2022/03/21 06:25:16;;;;;;;20.23;12.68;;;;;;;6.38;100.00;101989.47;5056044;28;20479;-72
2022/03/21 06:28:01;;;;;;;21.08;13.30;;;;;;;6.45;93.78;101988.25;5055632;28;20047;-72
2022/03/21 06:30:45;;;;;;;20.77;12.90;;;;;;;6.53;93.13;101987.84;5056176;28;20103;-72
2022/03/21 06:33:30;;;;;;;21.33;13.63;;;;;;;6.69;91.72;101996.75;5056196;28;20051;-72
2022/03/21 06:36:14;;;;;;;20.45;12.38;;;;;;;6.72;89.36;101997.47;5056374;28;20121;-72
2022/03/21 06:38:58;;;;;;;18.35;11.32;;;;;;;6.78;85.88;101999.78;5054824;28;20052;-72
2022/03/21 06:41:43;;;;;;;20.00;11.73;;;;;;;6.91;83.65;101998.25;5055095;28;20051;-72
2022/03/21 06:44:26;;;;;;;20.90;12.32;;;;;;;7.00;82.33;101997.75;5055925;28;20071;-72
2022/03/21 06:47:10;;;;;;;21.20;12.73;;;;;;;7.12;81.04;102005.06;5055443;28;20428;-72
2022/03/21 06:49:54;;;;;;;18.13;12.40;;;;;;;7.21;78.53;102009.03;5055878;28;20071;-72
2022/03/21 06:52:39;;;;;;;20.17;13.43;;;;;;;7.29;78.48;102012.13;5055822;28;20400;-72
2022/03/21 06:55:22;;;;;;;22.05;12.77;;;;;;;7.34;75.81;102018.91;5055787;28;20136;-72
2022/03/21 06:58:11;;;;;;;22.25;12.85;;;;;;;7.52;74.87;102025.91;5055158;28;20527;-72
2022/03/21 07:00:55;;;;;;;22.25;13.13;;;;;;;7.66;74.86;102028.66;5054611;28;20102;-72
2022/03/21 07:03:39;;;;;;;20.55;12.77;;;;;;;7.77;74.24;102032.44;5055569;28;20056;-72
2022/03/21 07:06:22;;;;;;;18.92;11.70;;;;;;;7.86;73.58;102031.06;5055360;28;20051;-72
2022/03/21 07:09:06;;;;;;;19.85;12.50;;;;;;;7.94;70.99;102031.50;5054146;28;20043;-72
2022/03/21 07:11:51;;;;;;;19.13;12.63;;;;;;;8.11;70.94;102032.28;5054748;28;20047;-72
2022/03/21 07:14:36;;;;;;;20.63;12.73;;;;;;;8.25;69.17;102035.03;5055002;28;20132;-72
2022/03/21 07:17:20;;;;;;;18.75;12.45;;;;;;;8.39;68.22;102050.19;5054322;28;20044;-72
2022/03/21 07:20:04;;;;;;;23.10;14.63;;;;;;;8.49;67.65;102048.72;5040087;28;20083;-72
2022/03/21 07:22:48;;;;;;;22.73;13.07;;;;;;;8.58;66.18;102045.53;5054241;28;20404;-72
2022/03/21 07:25:32;;;;;;;23.70;13.15;;;;;;;8.66;63.96;102053.94;5056450;28;20412;-71
2022/03/21 07:28:16;;;;;;;19.33;12.10;;;;;;;8.75;65.47;102056.06;5039485;28;20511;-70
2022/03/21 07:31:00;;;;;;;24.00;12.50;;;;;;;8.94;65.14;102046.00;5053860;28;20508;-72
2022/03/21 07:33:44;;;;;;;22.60;13.15;;;;;;;8.96;63.17;102052.13;5054036;28;20140;-72
2022/03/21 07:36:29;;;;;;;20.13;12.32;;;;;;;8.96;64.05;102050.31;5054042;28;20048;-72
2022/03/21 07:39:14;;;;;;;19.10;12.00;;;;;;;9.03;64.27;102041.03;5053748;28;20570;-72
2022/03/21 07:42:00;;;;;;;21.70;12.63;;;;;;;9.09;62.54;102045.13;5054685;28;20048;-72
2022/03/21 07:47:47;;;;;;;18.08;12.13;;;;;;;9.26;62.35;102052.94;5053954;28;20047;-72
2022/03/21 07:50:31;;;;;;;23.75;13.77;;;;;;;9.30;60.15;102052.69;5054462;28;20083;-72
2022/03/21 07:53:15;;;;;;;24.33;12.25;;;;;;;9.33;60.00;102059.59;5053732;28;20051;-72
2022/03/21 07:56:00;;;;;;;19.05;11.68;;;;;;;9.46;60.71;102060.59;5054611;28;20056;-72
2022/03/21 07:58:44;;;;;;;19.05;12.00;;;;;;;9.47;59.99;102059.63;5054090;28;20099;-72
2022/03/21 08:01:29;;;;;;;20.35;12.65;;;;;;;9.63;59.73;102063.03;5054315;28;20083;-72
2022/03/21 08:04:13;;;;;;;21.95;12.30;;;;;;;9.74;60.00;102065.88;5053455;28;20047;-72
2022/03/21 08:06:59;;;;;;;19.45;12.77;;;;;;;9.83;58.72;102070.66;5053709;28;20048;-72
2022/03/21 08:09:43;;;;;;;24.35;14.30;;;;;;;9.73;58.12;102070.38;5054107;28;20044;-72
2022/03/21 08:12:27;;;;;;;;;;;;;;;9.79;57.29;102069.13;5054796;28;20154;-72
2022/03/21 08:15:12;;;;;;;21.37;13.50;;;;;;;9.52;57.59;102071.69;5053074;28;19920;-72
2022/03/21 08:17:59;;;;;;;20.95;13.23;;;;;;;9.67;56.96;102072.56;5053209;28;20071;-71
2022/03/21 08:20:43;;;;;;;20.70;12.70;;;;;;;9.86;57.39;102067.78;5052718;28;20132;-72
2022/03/21 08:23:28;;;;;;;21.95;13.93;;;;;;;9.88;55.67;102068.56;5039066;28;20144;-72
2022/03/21 08:26:13;;;;;;;23.30;13.25;;;;;;;10.10;56.96;102069.78;5039181;28;20051;-72
2022/03/21 08:28:57;;;;;;;22.40;14.27;;;;;;;10.29;56.51;102068.53;5053670;28;20090;-72
2022/03/21 08:31:41;;;;;;;21.02;13.15;;;;;;;10.57;55.74;102067.56;5053613;28;20052;-72
2022/03/21 08:34:25;;;;;;;23.48;14.38;;;;;;;10.42;54.21;102065.88;5052763;28;20492;-72
2022/03/21 08:37:09;;;;;;;22.73;12.93;;;;;;;10.62;54.81;102068.97;5053628;28;20063;-72
2022/03/21 08:39:53;;;;;;;19.88;12.57;;;;;;;10.66;54.21;102061.63;5053245;28;20052;-72
2022/03/21 08:42:37;;;;;;;20.25;13.65;;;;;;;10.79;54.17;102066.06;5052567;28;20048;-72
2022/03/21 08:45:21;;;;;;;21.58;14.18;;;;;;;11.04;54.04;102066.09;5038405;28;20051;-72
2022/03/21 08:48:05;;;;;;;18.33;12.35;;;;;;;11.25;52.98;102058.47;5052453;28;20133;-72
2022/03/21 08:50:49;;;;;;;23.85;13.77;;;;;;;11.30;53.84;102067.84;5052659;28;20052;-72
2022/03/21 08:53:33;;;;;;;25.17;14.10;;;;;;;11.42;54.13;102072.34;5052383;28;20507;-72
2022/03/21 08:56:17;;;;;;;20.95;12.88;;;;;;;11.62;52.73;102063.84;5053377;28;20052;-72
2022/03/21 08:59:01;;;;;;;22.15;14.88;;;;;;;11.74;53.01;102062.09;5053400;28;20125;-72
2022/03/21 09:01:47;;;;;;;28.98;15.05;;;;;;;11.93;51.45;102063.38;5052529;28;20132;-73
2022/03/21 09:04:31;;;;;;;25.98;13.82;;;;;;;12.00;50.74;102064.63;5053217;28;20048;-72
2022/03/21 09:07:15;;;;;;;23.58;14.55;;;;;;;12.14;50.61;102061.81;5052467;28;20105;-72
2022/03/21 09:09:59;;;;;;;19.25;13.27;;;;;;;12.35;50.27;102054.91;5039314;28;20094;-72
2022/03/21 09:12:43;;;;;;;24.38;15.15;;;;;;;12.46;49.29;102057.63;5052704;28;20067;-72
2022/03/21 09:15:27;;;;;;;19.77;13.82;;;;;;;12.85;48.47;102060.03;5052312;28;20503;-72
2022/03/21 09:18:11;;;;;;;21.98;14.73;;;;;;;12.83;47.89;102056.63;5052035;28;20107;-72
2022/03/21 09:20:56;;;;;;;20.02;14.25;;;;;;;13.09;48.88;102063.53;5052365;28;20078;-72
2022/03/21 09:23:41;;;;;;;22.00;14.48;;;;;;;13.27;47.96;102062.13;5052301;28;20047;-72
2022/03/21 09:26:25;;;;;;;24.38;15.98;;;;;;;13.24;47.35;102054.34;5052288;28;20052;-72
2022/03/21 09:29:09;;;;;;;23.17;14.77;;;;;;;13.48;47.29;102058.63;5052151;28;20458;-72
2022/03/21 09:31:53;;;;;;;23.42;14.95;;;;;;;13.79;46.53;102059.75;5053069;28;20576;-72
2022/03/21 09:34:39;;;;;;;20.20;14.35;;;;;;;14.11;46.41;102060.72;5052510;28;20098;-72
2022/03/21 09:37:23;;;;;;;23.67;14.52;;;;;;;14.69;44.45;102050.47;5052005;28;20088;-72
2022/03/21 09:40:08;;;;;;;24.45;14.30;;;;;;;15.69;44.71;102051.63;5052862;28;20130;-72
2022/03/21 09:42:52;;;;;;;23.15;14.77;;;;;;;17.20;40.73;102042.16;5051862;28;20171;-72
2022/03/21 09:45:37;;;;;;;21.70;14.32;;;;;;;17.11;38.81;102045.72;5038225;28;20124;-73
2022/03/21 09:48:23;;;;;;;24.50;13.98;;;;;;;18.47;38.02;102041.25;5051783;28;20051;-72
2022/03/21 09:51:07;;;;;;;23.45;14.20;;;;;;;18.47;38.02;102041.25;5052016;28;20511;-70
2022/03/21 09:53:52;;;;;;;23.38;15.98;;;;;;;21.44;32.02;102041.75;5041684;28;20055;-70
2022/03/21 09:56:36;;;;;;;21.35;16.08;;;;;;;23.62;29.80;102035.81;5055793;28;20114;-71
2022/03/21 09:59:19;;;;;;;21.25;15.98;;;;;;;24.44;28.06;102028.13;5056648;28;20048;-71
2022/03/21 10:02:04;;;;;;;;;;;;;;;24.90;27.39;102021.34;5042338;28;20071;-71
2022/03/21 10:04:48;;;;;;;24.45;16.73;;;;;;;25.45;25.92;102029.63;5055422;28;19982;-71
2022/03/21 10:07:32;;;;;;;22.15;17.50;;;;;;;24.61;26.32;102025.00;5056657;28;20051;-70
2022/03/21 10:10:16;;;;;;;23.40;16.77;;;;;;;25.32;25.84;102021.34;5056403;28;20051;-71
2022/03/21 10:13:02;;;;;;;26.77;16.95;;;;;;;24.98;26.38;102010.28;5055556;28;20574;-71
2022/03/21 10:15:47;;;;;;;21.38;17.17;;;;;;;25.10;25.68;102003.28;5055438;28;20048;-71
2022/03/21 10:18:31;;;;;;;22.60;17.20;;;;;;;25.99;25.00;102008.75;5055069;28;20043;-71
2022/03/21 10:21:15;;;;;;;24.52;17.25;;;;;;;23.84;27.34;102008.50;5055395;28;20174;-71
2022/03/21 10:24:02;;;;;;;21.55;17.20;;;;;;;26.22;24.77;101995.59;5055401;28;20463;-71
2022/03/21 10:26:46;;;;;;;21.92;17.80;;;;;;;24.47;26.23;102014.13;5056614;28;20083;-71
2022/03/21 10:29:31;;;;;;;22.48;15.68;;;;;;;26.97;24.79;101996.25;5056150;28;20083;-71
2022/03/21 10:32:36;;;;;;;21.60;17.33;;;;;;;26.22;24.74;102006.53;5041530;28;20056;-71
2022/03/21 10:35:28;;;;;;;22.67;17.15;;;;;;;27.93;23.34;102000.81;5056145;28;20098;-71
2022/03/21 10:38:12;;;;;;;22.40;17.00;;;;;;;26.98;23.38;102004.25;5055003;28;20043;-71
2022/03/21 10:40:57;;;;;;;23.67;17.23;;;;;;;26.75;24.01;101992.03;5056358;28;20063;-72
2022/03/21 10:43:53;;;;;;;21.73;17.10;;;;;;;-139.48;100.00;61774.03;5055129;28;20051;-71
2022/03/21 10:46:40;;;;;;;25.05;20.95;;;;;;;-139.48;100.00;61774.03;5054758;28;20044;-71
2022/03/21 10:49:33;;;;;;;24.38;18.00;;;;;;;26.75;24.01;101992.03;5054791;28;20118;-71
2022/03/21 10:52:18;;;;;;;21.33;16.58;;;;;;;27.28;23.10;101984.50;5056256;28;20055;-71
2022/03/21 10:55:04;;;;;;;18.92;16.23;;;;;;;29.05;21.87;101986.31;5054631;28;20527;-71
2022/03/21 10:57:54;;;;;;;21.10;15.93;;;;;;;29.62;21.61;101987.91;5054559;28;20052;-71
2022/03/21 11:00:38;;;;;;;20.35;16.73;;;;;;;29.57;20.56;101980.34;5055589;28;20060;-72
2022/03/21 11:03:22;;;;;;;24.17;16.25;;;;;;;30.23;20.30;101981.31;5040043;28;20044;-71
2022/03/21 11:06:10;;;;;;;20.73;17.35;;;;;;;29.93;21.08;101980.38;5054393;28;20052;-71
2022/03/21 11:08:55;;;;;;;21.38;17.35;;;;;;;29.04;22.11;101975.56;5054494;28;20412;-71
2022/03/21 11:11:39;;;;;;;22.15;16.27;;;;;;;29.45;21.29;101976.66;5054361;28;20052;-71
2022/03/21 11:14:23;;;;;;;22.00;15.88;;;;;;;30.99;19.35;101971.28;5054739;28;20043;-71
2022/03/21 11:17:07;;;;;;;21.00;17.38;;;;;;;31.48;18.40;101957.94;5055451;28;20051;-72
2022/03/21 11:19:51;;;;;;;19.65;16.00;;;;;;;32.29;18.26;101961.38;5053960;28;20095;-71
2022/03/21 11:22:36;;;;;;;18.05;15.57;;;;;;;32.29;18.26;101961.38;5054152;28;20587;-72
2022/03/21 11:25:22;;;;;;;20.63;15.73;;;;;;;33.07;18.01;101951.25;5054569;28;20182;-71
2022/03/21 11:28:43;;;;;;;17.52;15.55;;;;;;;33.62;17.24;101950.19;5054115;28;20055;-71
2022/03/21 11:31:56;;;;;;;19.02;15.55;;;;;;;34.35;17.14;101950.63;5055212;28;20506;-72
2022/03/21 11:35:22;;;;;;;19.42;16.25;;;;;;;32.03;18.26;101953.66;5055115;28;20067;-73
2022/03/21 11:38:47;;;;;;;18.02;15.23;;;;;;;33.41;17.61;101945.47;5055001;28;20056;-72
2022/03/21 11:41:32;;;;;;;21.00;16.23;;;;;;;31.83;17.62;101944.97;5053710;28;20052;-71
2022/03/21 11:44:16;;;;;;;17.90;14.75;;;;;;;33.25;17.49;101938.03;5054663;28;20095;-71
2022/03/21 11:47:18;;;;;;;19.77;15.40;;;;;;;32.58;18.32;101929.09;5054819;28;20122;-72
2022/03/21 11:50:26;;;;;;;18.40;15.82;;;;;;;32.53;17.87;101926.22;5054471;28;20526;-71
2022/03/21 11:53:10;;;;;;;19.23;16.17;;;;;;;33.48;17.26;101924.00;5054733;28;20051;-71
2022/03/21 11:55:54;;;;;;;18.15;15.63;;;;;;;31.57;18.46;101915.09;5053756;28;20090;-72
2022/03/21 11:58:38;;;;;;;17.45;15.05;;;;;;;32.04;18.87;101921.38;5054054;28;20072;-71
2022/03/21 12:01:27;;;;;;;16.67;14.40;;;;;;;32.20;18.23;101924.25;5054286;28;20114;-71
2022/03/21 12:04:23;;;;;;;16.48;14.38;;;;;;;33.36;17.73;101912.19;5053610;28;20407;-71
2022/03/21 12:07:13;;;;;;;17.02;14.98;;;;;;;34.20;16.98;101913.59;5054700;28;20052;-71
2022/03/21 12:09:57;;;;;;;20.35;15.32;;;;;;;33.66;16.16;101914.56;5054363;28;20090;-71
2022/03/21 12:12:41;;;;;;;20.67;16.30;;;;;;;32.80;17.14;101902.44;5054238;28;20230;-71
2022/03/21 12:15:30;;;;;;;20.10;14.35;;;;;;;32.52;17.99;101896.94;5053063;28;20067;-71
2022/03/21 12:18:13;;;;;;;16.38;12.82;;;;;;;31.42;19.47;101895.50;5053979;28;20404;-71
2022/03/21 12:21:10;;;;;;;16.10;14.23;;;;;;;30.29;19.67;101903.31;5054021;28;20056;-71
2022/03/21 12:24:11;;;;;;;19.00;15.07;;;;;;;29.92;20.33;101896.19;5039050;28;20051;-71
2022/03/21 12:26:56;;;;;;;18.65;14.02;;;;;;;28.85;21.15;101889.50;5054069;28;20095;-71
2022/03/21 12:29:41;;;;;;;16.38;13.05;;;;;;;27.61;22.60;101885.81;5053662;28;20519;-72
2022/03/21 12:32:26;;;;;;;16.38;13.15;;;;;;;28.57;22.20;101883.63;5052833;28;20055;-71
2022/03/21 12:35:30;;;;;;;20.30;15.07;;;;;;;28.13;22.15;101883.66;5054006;28;20086;-71
2022/03/21 12:38:23;;;;;;;23.27;14.25;;;;;;;28.26;22.98;101875.38;5053486;28;20443;-71
2022/03/21 12:41:08;;;;;;;22.13;14.10;;;;;;;27.13;23.78;101877.06;5052901;28;20047;-71
2022/03/21 12:43:55;;;;;;;14.82;13.23;;;;;;;27.48;23.49;101873.00;5052839;28;20064;-71
2022/03/21 12:46:40;;;;;;;16.95;13.63;;;;;;;27.62;22.73;101868.31;5054061;28;20056;-71
2022/03/21 12:49:24;;;;;;;18.50;13.60;;;;;;;27.44;23.41;101869.00;5052401;28;20150;-71
2022/03/21 12:52:08;;;;;;;15.85;13.15;;;;;;;26.55;100.00;104614.03;5038302;28;20060;-71
2022/03/21 12:54:53;;;;;;;20.30;13.82;;;;;;;26.47;24.88;101865.47;5053648;28;20124;-71